Cleveland, Ohio
Traffic Map
Current Weather Conditions
Cleveland, Ohio
Clear
Clear
20°
Feels Like: 20°
Wind Chill: 20° Ceiling: Unl
Heat Index: 20° Visibility: 10mi
Dew Point: 11° Wind: 7mph
Humidity: 55% Direction: 40° (NE)
Pressure: 30.02in Gusts: 0mph
Raw Report DataKBKL 242353Z 04006KT 10SM CLR 20/11 A3002 RMK AO2 SLP163 T02000106 10217 20200 56013 $
Traffic Incident Summary
Active as of:
Severity:
Category:
InformationThere was an issue retrieving the traffic information for this location. Please try a different location or try again shortly.
Advertisements
Track Severe Weather on mobile